Terminal Aerodrome Forecast
Issued by NWS

Home | Current Version | Previous Version | Text Only | Print | Product List | Glossary On
Versions: 1 2 3 4 5 6 7 8 9 10 11 12 13 14 15 16 17
000
FTUS43 KDLH 260700 AAA
TAFBRD
TAF AMD
KBRD 260700Z 2607/2706 32013G17KT P6SM BKN030
      TEMPO 2608/2611 BKN018
     FM261100 33011KT P6SM BKN030
     FM261600 34012KT P6SM SCT060
     FM270000 01007KT P6SM SKC=

USA.gov is the U.S. government's official web portal to all federal, state and local government web resources and services.